Main page
METAR-TAF:

METAR-TAF

Airports :

Brønnøysund Airport. Brønnøy

Brønnøysund, Norway

latitude: 65-28N, longitude: 012-13E, elevation: 0 m

Current weather observation

The report was made 33 minutes ago, at 16:20 UTC
Wind 9 kt from the North/Northwest
Temperature 14°C
Humidity 94%
Pressure 1014 hPa
Visibility 10 km or more
Few clouds at a height of 500 ft
Scattered clouds at a height of 700 ft
Broken clouds at a height of 1800 ft
rain,

METAR: ENBN 231620Z 33009KT 9999 RA FEW005 SCT007 BKN018 14/13 Q1014

Time: 18:53 (16:53 UTC)

Forecast

The report was made 2 hours and 53 minutes ago, at 14:00 UTC
Forecast valid from 23 at 15 UTC to 23 at 24 UTC
Wind 8 kt from the North/Northwest
Visibility 10 km or more
Few clouds at a height of 800 ft
Broken clouds at a height of 1500 ft
light rain
Temporary
from 23 at 15 UTC to 23 at 21 UTC
Few clouds at a height of 500 ft
Broken clouds at a height of 800 ft
rain,

TAF: ENBN 231400Z 2315/2324 34008KT 9999 -RA FEW008 BKN015 TEMPO 2315/2321 RA FEW005 BKN008

Weather observations and forecasts of more than 4000 airports (METAR and TAF reports).

The available stations are represented by yellow and red dots on the map.

Hover mouse over dot to see the name of the station.

Then click to see weather observations and forecasts.

To change the map : click on the green buttons with a black cross to zoom in, on the green button with a dash to zoom out, or on the green arrows for adjacent maps.


METAR-TAF: